sensor_id;sensor_type;location;lat;lon;timestamp;temperature;humidity
34877;DHT22;21086;44.780;17.194;2023-03-03T00:01:25;6.80;99.90
34877;DHT22;21086;44.780;17.194;2023-03-03T00:03:53;6.80;99.90
34877;DHT22;21086;44.780;17.194;2023-03-03T00:06:20;6.80;99.90
34877;DHT22;21086;44.780;17.194;2023-03-03T00:08:47;6.70;99.90
34877;DHT22;21086;44.780;17.194;2023-03-03T00:11:14;6.70;99.90
34877;DHT22;21086;44.780;17.194;2023-03-03T00:13:50;6.70;99.90
34877;DHT22;21086;44.780;17.194;2023-03-03T00:16:29;6.70;99.90
34877;DHT22;21086;44.780;17.194;2023-03-03T00:18:57;6.70;99.90
34877;DHT22;21086;44.780;17.194;2023-03-03T00:21:39;6.60;99.90
34877;DHT22;21086;44.780;17.194;2023-03-03T00:26:41;6.60;99.90
34877;DHT22;21086;44.780;17.194;2023-03-03T00:32:26;6.70;99.90
34877;DHT22;21086;44.780;17.194;2023-03-03T00:34:55;6.60;99.90
34877;DHT22;21086;44.780;17.194;2023-03-03T00:37:26;6.50;99.90
34877;DHT22;21086;44.780;17.194;2023-03-03T00:40:19;6.40;99.90
34877;DHT22;21086;44.780;17.194;2023-03-03T00:42:49;6.40;99.90
34877;DHT22;21086;44.780;17.194;2023-03-03T00:45:39;6.40;99.90
34877;DHT22;21086;44.780;17.194;2023-03-03T00:48:22;6.40;99.90
34877;DHT22;21086;44.780;17.194;2023-03-03T00:50:52;6.40;99.90
34877;DHT22;21086;44.780;17.194;2023-03-03T00:53:21;6.40;99.90
34877;DHT22;21086;44.780;17.194;2023-03-03T00:55:50;6.50;99.90
34877;DHT22;21086;44.780;17.194;2023-03-03T00:58:19;6.50;99.90
34877;DHT22;21086;44.780;17.194;2023-03-03T01:00:52;6.50;99.90
34877;DHT22;21086;44.780;17.194;2023-03-03T01:03:22;6.50;99.90
34877;DHT22;21086;44.780;17.194;2023-03-03T01:05:51;6.50;99.90
34877;DHT22;21086;44.780;17.194;2023-03-03T01:08:18;6.50;99.90
34877;DHT22;21086;44.780;17.194;2023-03-03T01:10:52;6.50;99.90
34877;DHT22;21086;44.780;17.194;2023-03-03T01:13:21;6.50;99.90
34877;DHT22;21086;44.780;17.194;2023-03-03T01:15:49;6.50;99.90
34877;DHT22;21086;44.780;17.194;2023-03-03T01:18:16;6.60;99.90
34877;DHT22;21086;44.780;17.194;2023-03-03T01:20:43;6.60;99.90
34877;DHT22;21086;44.780;17.194;2023-03-03T01:23:10;6.60;99.90
34877;DHT22;21086;44.780;17.194;2023-03-03T01:25:37;6.50;99.90
34877;DHT22;21086;44.780;17.194;2023-03-03T01:28:05;6.40;99.90
34877;DHT22;21086;44.780;17.194;2023-03-03T01:30:32;6.30;99.90
34877;DHT22;21086;44.780;17.194;2023-03-03T01:33:00;6.20;99.90
34877;DHT22;21086;44.780;17.194;2023-03-03T01:35:26;6.20;99.90
34877;DHT22;21086;44.780;17.194;2023-03-03T01:37:56;6.20;99.90
34877;DHT22;21086;44.780;17.194;2023-03-03T01:40:27;6.20;99.90
34877;DHT22;21086;44.780;17.194;2023-03-03T01:42:55;6.20;99.90
34877;DHT22;21086;44.780;17.194;2023-03-03T01:45:29;6.10;99.90
34877;DHT22;21086;44.780;17.194;2023-03-03T01:51:01;6.10;99.90
34877;DHT22;21086;44.780;17.194;2023-03-03T01:53:44;6.20;99.90
34877;DHT22;21086;44.780;17.194;2023-03-03T01:56:12;6.20;99.90
34877;DHT22;21086;44.780;17.194;2023-03-03T01:58:43;6.30;99.90
34877;DHT22;21086;44.780;17.194;2023-03-03T02:01:15;6.30;99.90
34877;DHT22;21086;44.780;17.194;2023-03-03T02:03:43;6.30;99.90
34877;DHT22;21086;44.780;17.194;2023-03-03T02:06:14;6.30;99.90
34877;DHT22;21086;44.780;17.194;2023-03-03T02:11:31;6.20;99.90
34877;DHT22;21086;44.780;17.194;2023-03-03T02:13:58;6.20;99.90
34877;DHT22;21086;44.780;17.194;2023-03-03T02:16:26;6.20;99.90
34877;DHT22;21086;44.780;17.194;2023-03-03T02:18:53;6.30;99.90
34877;DHT22;21086;44.780;17.194;2023-03-03T02:21:22;6.20;99.90
34877;DHT22;21086;44.780;17.194;2023-03-03T02:24:08;6.20;99.90
34877;DHT22;21086;44.780;17.194;2023-03-03T02:26:41;6.20;99.90
34877;DHT22;21086;44.780;17.194;2023-03-03T02:29:09;6.20;99.90
34877;DHT22;21086;44.780;17.194;2023-03-03T02:31:36;6.20;99.90
34877;DHT22;21086;44.780;17.194;2023-03-03T02:34:05;6.10;99.90
34877;DHT22;21086;44.780;17.194;2023-03-03T02:36:37;5.90;99.90
34877;DHT22;21086;44.780;17.194;2023-03-03T02:39:19;4.70;99.90
34877;DHT22;21086;44.780;17.194;2023-03-03T02:44:38;6.00;99.90
34877;DHT22;21086;44.780;17.194;2023-03-03T02:47:06;6.00;99.90
34877;DHT22;21086;44.780;17.194;2023-03-03T02:49:34;6.00;99.90
34877;DHT22;21086;44.780;17.194;2023-03-03T02:52:05;6.10;99.90
34877;DHT22;21086;44.780;17.194;2023-03-03T02:54:33;6.10;99.90
34877;DHT22;21086;44.780;17.194;2023-03-03T02:57:00;6.20;99.90
34877;DHT22;21086;44.780;17.194;2023-03-03T02:59:27;6.20;99.90
34877;DHT22;21086;44.780;17.194;2023-03-03T03:01:54;6.30;99.90
34877;DHT22;21086;44.780;17.194;2023-03-03T03:04:26;6.40;99.90
34877;DHT22;21086;44.780;17.194;2023-03-03T03:06:54;6.40;99.90
34877;DHT22;21086;44.780;17.194;2023-03-03T03:09:22;6.40;99.90
34877;DHT22;21086;44.780;17.194;2023-03-03T03:11:50;6.40;99.90
34877;DHT22;21086;44.780;17.194;2023-03-03T03:14:17;6.40;99.90
34877;DHT22;21086;44.780;17.194;2023-03-03T03:16:44;6.50;99.90
34877;DHT22;21086;44.780;17.194;2023-03-03T03:19:11;6.50;99.90
34877;DHT22;21086;44.780;17.194;2023-03-03T03:21:38;6.40;99.90
34877;DHT22;21086;44.780;17.194;2023-03-03T03:24:05;6.40;99.90
34877;DHT22;21086;44.780;17.194;2023-03-03T03:26:32;6.40;99.90
34877;DHT22;21086;44.780;17.194;2023-03-03T03:29:00;6.50;99.90
34877;DHT22;21086;44.780;17.194;2023-03-03T03:31:27;6.50;99.90
34877;DHT22;21086;44.780;17.194;2023-03-03T03:33:54;6.50;99.90
34877;DHT22;21086;44.780;17.194;2023-03-03T03:36:21;6.60;99.90
34877;DHT22;21086;44.780;17.194;2023-03-03T03:38:48;6.60;99.90
34877;DHT22;21086;44.780;17.194;2023-03-03T03:41:15;6.60;99.90
34877;DHT22;21086;44.780;17.194;2023-03-03T03:43:42;6.50;99.90
34877;DHT22;21086;44.780;17.194;2023-03-03T03:46:09;6.50;99.90
34877;DHT22;21086;44.780;17.194;2023-03-03T03:48:36;6.60;99.90
34877;DHT22;21086;44.780;17.194;2023-03-03T03:51:04;6.60;99.90
34877;DHT22;21086;44.780;17.194;2023-03-03T03:53:31;6.60;99.90
34877;DHT22;21086;44.780;17.194;2023-03-03T03:55:58;6.50;99.90
34877;DHT22;21086;44.780;17.194;2023-03-03T03:58:25;6.50;99.90
34877;DHT22;21086;44.780;17.194;2023-03-03T04:00:52;6.60;99.90
34877;DHT22;21086;44.780;17.194;2023-03-03T04:03:19;6.60;99.90
34877;DHT22;21086;44.780;17.194;2023-03-03T04:05:46;6.50;99.90
34877;DHT22;21086;44.780;17.194;2023-03-03T04:10:49;6.50;99.90
34877;DHT22;21086;44.780;17.194;2023-03-03T04:13:16;6.50;99.90
34877;DHT22;21086;44.780;17.194;2023-03-03T04:15:44;6.50;99.90
34877;DHT22;21086;44.780;17.194;2023-03-03T04:18:11;6.60;99.90
34877;DHT22;21086;44.780;17.194;2023-03-03T04:20:39;6.60;99.90
34877;DHT22;21086;44.780;17.194;2023-03-03T04:23:06;6.60;99.90
34877;DHT22;21086;44.780;17.194;2023-03-03T04:25:33;6.60;99.90
34877;DHT22;21086;44.780;17.194;2023-03-03T04:28:00;6.60;99.90
34877;DHT22;21086;44.780;17.194;2023-03-03T04:30:30;6.50;99.90
34877;DHT22;21086;44.780;17.194;2023-03-03T04:32:58;6.60;99.90
34877;DHT22;21086;44.780;17.194;2023-03-03T04:35:24;6.60;99.90
34877;DHT22;21086;44.780;17.194;2023-03-03T04:37:52;6.50;99.90
34877;DHT22;21086;44.780;17.194;2023-03-03T04:40:19;6.50;99.90
34877;DHT22;21086;44.780;17.194;2023-03-03T04:42:46;6.40;99.90
34877;DHT22;21086;44.780;17.194;2023-03-03T04:45:13;6.40;99.90
34877;DHT22;21086;44.780;17.194;2023-03-03T04:47:40;6.40;99.90
34877;DHT22;21086;44.780;17.194;2023-03-03T04:50:08;6.40;99.90
34877;DHT22;21086;44.780;17.194;2023-03-03T04:52:35;6.40;99.90
34877;DHT22;21086;44.780;17.194;2023-03-03T04:55:03;6.40;99.90
34877;DHT22;21086;44.780;17.194;2023-03-03T04:57:30;6.50;99.90
34877;DHT22;21086;44.780;17.194;2023-03-03T04:59:57;6.50;99.90
34877;DHT22;21086;44.780;17.194;2023-03-03T05:02:24;6.50;99.90
34877;DHT22;21086;44.780;17.194;2023-03-03T05:04:51;6.40;99.90
34877;DHT22;21086;44.780;17.194;2023-03-03T05:07:18;6.40;99.90
34877;DHT22;21086;44.780;17.194;2023-03-03T05:09:46;6.40;99.90
34877;DHT22;21086;44.780;17.194;2023-03-03T05:12:13;6.40;99.90
34877;DHT22;21086;44.780;17.194;2023-03-03T05:14:40;6.50;99.90
34877;DHT22;21086;44.780;17.194;2023-03-03T05:17:07;6.40;99.90
34877;DHT22;21086;44.780;17.194;2023-03-03T05:19:34;6.40;99.90
34877;DHT22;21086;44.780;17.194;2023-03-03T05:22:01;6.50;99.90
34877;DHT22;21086;44.780;17.194;2023-03-03T05:24:28;6.50;99.90
34877;DHT22;21086;44.780;17.194;2023-03-03T05:26:55;6.50;99.90
34877;DHT22;21086;44.780;17.194;2023-03-03T05:29:22;6.50;99.90
34877;DHT22;21086;44.780;17.194;2023-03-03T05:31:49;6.50;99.90
34877;DHT22;21086;44.780;17.194;2023-03-03T05:34:16;6.50;99.90
34877;DHT22;21086;44.780;17.194;2023-03-03T05:36:43;6.60;99.90
34877;DHT22;21086;44.780;17.194;2023-03-03T05:39:10;6.50;99.90
34877;DHT22;21086;44.780;17.194;2023-03-03T05:41:37;6.40;99.90
34877;DHT22;21086;44.780;17.194;2023-03-03T05:44:04;6.40;99.90
34877;DHT22;21086;44.780;17.194;2023-03-03T05:46:30;6.40;99.90
34877;DHT22;21086;44.780;17.194;2023-03-03T05:48:57;6.30;99.90
34877;DHT22;21086;44.780;17.194;2023-03-03T05:51:25;6.40;99.90
34877;DHT22;21086;44.780;17.194;2023-03-03T05:53:53;6.40;99.90
34877;DHT22;21086;44.780;17.194;2023-03-03T05:56:22;6.40;99.90
34877;DHT22;21086;44.780;17.194;2023-03-03T05:58:49;6.50;99.90
34877;DHT22;21086;44.780;17.194;2023-03-03T06:01:17;6.60;99.90
34877;DHT22;21086;44.780;17.194;2023-03-03T06:03:44;6.50;99.90
34877;DHT22;21086;44.780;17.194;2023-03-03T06:06:11;6.60;99.90
34877;DHT22;21086;44.780;17.194;2023-03-03T06:08:39;6.50;99.90
34877;DHT22;21086;44.780;17.194;2023-03-03T06:11:07;6.60;99.90
34877;DHT22;21086;44.780;17.194;2023-03-03T06:13:34;6.70;99.90
34877;DHT22;21086;44.780;17.194;2023-03-03T06:16:00;6.80;99.90
34877;DHT22;21086;44.780;17.194;2023-03-03T06:18:27;6.80;99.90
34877;DHT22;21086;44.780;17.194;2023-03-03T06:20:54;6.90;99.90
34877;DHT22;21086;44.780;17.194;2023-03-03T06:23:21;6.90;99.90
34877;DHT22;21086;44.780;17.194;2023-03-03T06:25:48;6.80;99.90
34877;DHT22;21086;44.780;17.194;2023-03-03T06:28:15;6.90;99.90
34877;DHT22;21086;44.780;17.194;2023-03-03T06:30:42;6.90;99.90
34877;DHT22;21086;44.780;17.194;2023-03-03T06:33:10;6.90;99.90
34877;DHT22;21086;44.780;17.194;2023-03-03T06:35:37;6.90;99.90
34877;DHT22;21086;44.780;17.194;2023-03-03T06:38:04;6.90;99.90
34877;DHT22;21086;44.780;17.194;2023-03-03T06:40:30;6.80;99.90
34877;DHT22;21086;44.780;17.194;2023-03-03T06:42:57;6.80;99.90
34877;DHT22;21086;44.780;17.194;2023-03-03T06:45:24;6.70;99.90
34877;DHT22;21086;44.780;17.194;2023-03-03T06:47:51;6.60;99.90
34877;DHT22;21086;44.780;17.194;2023-03-03T06:50:19;6.60;99.90
34877;DHT22;21086;44.780;17.194;2023-03-03T06:52:47;6.60;99.90
34877;DHT22;21086;44.780;17.194;2023-03-03T06:55:22;6.70;99.90
34877;DHT22;21086;44.780;17.194;2023-03-03T06:57:49;6.60;99.90
34877;DHT22;21086;44.780;17.194;2023-03-03T07:00:23;6.60;99.90
34877;DHT22;21086;44.780;17.194;2023-03-03T07:03:06;6.60;99.90
34877;DHT22;21086;44.780;17.194;2023-03-03T07:05:34;6.50;99.90
34877;DHT22;21086;44.780;17.194;2023-03-03T07:08:05;6.40;99.90
34877;DHT22;21086;44.780;17.194;2023-03-03T07:10:32;6.40;99.90
34877;DHT22;21086;44.780;17.194;2023-03-03T07:13:23;6.40;99.90
34877;DHT22;21086;44.780;17.194;2023-03-03T07:15:53;6.40;99.90
34877;DHT22;21086;44.780;17.194;2023-03-03T07:21:14;6.50;99.90
34877;DHT22;21086;44.780;17.194;2023-03-03T07:23:43;6.60;99.90
34877;DHT22;21086;44.780;17.194;2023-03-03T07:26:13;6.70;99.90
34877;DHT22;21086;44.780;17.194;2023-03-03T07:29:15;6.90;99.90
34877;DHT22;21086;44.780;17.194;2023-03-03T07:31:37;6.90;99.90
34877;DHT22;21086;44.780;17.194;2023-03-03T07:34:37;6.90;99.90
34877;DHT22;21086;44.780;17.194;2023-03-03T07:37:15;6.90;99.90
34877;DHT22;21086;44.780;17.194;2023-03-03T07:39:44;6.90;99.90
34877;DHT22;21086;44.780;17.194;2023-03-03T07:42:25;7.00;99.90
34877;DHT22;21086;44.780;17.194;2023-03-03T07:44:59;7.00;99.90
34877;DHT22;21086;44.780;17.194;2023-03-03T07:47:29;7.10;99.90
34877;DHT22;21086;44.780;17.194;2023-03-03T07:50:00;7.20;99.90
34877;DHT22;21086;44.780;17.194;2023-03-03T07:52:41;7.20;99.90
34877;DHT22;21086;44.780;17.194;2023-03-03T07:57:53;7.20;99.90
34877;DHT22;21086;44.780;17.194;2023-03-03T08:01:18;7.30;99.90
34877;DHT22;21086;44.780;17.194;2023-03-03T08:03:18;7.40;99.90
34877;DHT22;21086;44.780;17.194;2023-03-03T08:05:49;7.40;99.90
34877;DHT22;21086;44.780;17.194;2023-03-03T08:08:32;7.40;99.90
34877;DHT22;21086;44.780;17.194;2023-03-03T08:11:03;7.40;99.90
34877;DHT22;21086;44.780;17.194;2023-03-03T08:18:39;7.40;99.90
34877;DHT22;21086;44.780;17.194;2023-03-03T08:21:16;7.40;99.90
34877;DHT22;21086;44.780;17.194;2023-03-03T08:23:44;7.50;99.90
34877;DHT22;21086;44.780;17.194;2023-03-03T08:26:11;7.50;99.90
34877;DHT22;21086;44.780;17.194;2023-03-03T08:28:39;7.60;99.90
34877;DHT22;21086;44.780;17.194;2023-03-03T08:31:06;7.60;99.90
34877;DHT22;21086;44.780;17.194;2023-03-03T08:33:46;7.70;99.90
34877;DHT22;21086;44.780;17.194;2023-03-03T08:36:13;7.80;99.90
34877;DHT22;21086;44.780;17.194;2023-03-03T08:38:40;7.80;99.90
34877;DHT22;21086;44.780;17.194;2023-03-03T08:41:09;6.70;99.90
34877;DHT22;21086;44.780;17.194;2023-03-03T08:43:36;7.80;99.90
34877;DHT22;21086;44.780;17.194;2023-03-03T08:46:05;7.70;99.90
34877;DHT22;21086;44.780;17.194;2023-03-03T08:48:32;7.80;99.90
34877;DHT22;21086;44.780;17.194;2023-03-03T08:51:00;7.80;99.90
34877;DHT22;21086;44.780;17.194;2023-03-03T08:53:27;7.90;99.90
34877;DHT22;21086;44.780;17.194;2023-03-03T08:55:54;7.90;99.90
34877;DHT22;21086;44.780;17.194;2023-03-03T08:58:21;8.00;99.90
34877;DHT22;21086;44.780;17.194;2023-03-03T09:01:00;8.10;99.90
34877;DHT22;21086;44.780;17.194;2023-03-03T09:03:27;8.20;99.90
34877;DHT22;21086;44.780;17.194;2023-03-03T09:05:54;8.20;99.90
34877;DHT22;21086;44.780;17.194;2023-03-03T09:08:22;8.10;99.90
34877;DHT22;21086;44.780;17.194;2023-03-03T09:10:49;8.20;99.90
34877;DHT22;21086;44.780;17.194;2023-03-03T09:13:18;8.10;99.90
34877;DHT22;21086;44.780;17.194;2023-03-03T09:15:45;8.00;99.90
34877;DHT22;21086;44.780;17.194;2023-03-03T09:18:18;8.00;99.90
34877;DHT22;21086;44.780;17.194;2023-03-03T09:25:50;8.20;99.90
34877;DHT22;21086;44.780;17.194;2023-03-03T09:28:29;8.20;99.90
34877;DHT22;21086;44.780;17.194;2023-03-03T09:31:02;8.10;99.90
34877;DHT22;21086;44.780;17.194;2023-03-03T09:33:44;8.10;99.90
34877;DHT22;21086;44.780;17.194;2023-03-03T09:36:24;8.10;99.90
34877;DHT22;21086;44.780;17.194;2023-03-03T09:38:53;8.20;99.90
34877;DHT22;21086;44.780;17.194;2023-03-03T09:55:53;8.30;99.90
34877;DHT22;21086;44.780;17.194;2023-03-03T09:58:45;8.30;99.90
34877;DHT22;21086;44.780;17.194;2023-03-03T10:04:37;8.00;99.90
34877;DHT22;21086;44.780;17.194;2023-03-03T10:07:38;8.10;99.90
34877;DHT22;21086;44.780;17.194;2023-03-03T10:10:24;8.10;99.90
34877;DHT22;21086;44.780;17.194;2023-03-03T10:18:46;8.00;99.90
34877;DHT22;21086;44.780;17.194;2023-03-03T10:21:44;8.20;99.90
34877;DHT22;21086;44.780;17.194;2023-03-03T10:24:52;8.40;99.90
34877;DHT22;21086;44.780;17.194;2023-03-03T10:41:34;8.80;99.90
34877;DHT22;21086;44.780;17.194;2023-03-03T10:44:18;8.80;99.90
34877;DHT22;21086;44.780;17.194;2023-03-03T10:49:54;8.70;99.90
34877;DHT22;21086;44.780;17.194;2023-03-03T10:52:36;8.70;99.90
34877;DHT22;21086;44.780;17.194;2023-03-03T11:01:12;8.50;99.90
34877;DHT22;21086;44.780;17.194;2023-03-03T11:04:01;8.60;99.90
34877;DHT22;21086;44.780;17.194;2023-03-03T11:12:14;8.70;99.90
34877;DHT22;21086;44.780;17.194;2023-03-03T11:20:39;8.60;99.90
34877;DHT22;21086;44.780;17.194;2023-03-03T11:29:49;8.70;99.90
34877;DHT22;21086;44.780;17.194;2023-03-03T11:32:37;8.70;99.90
34877;DHT22;21086;44.780;17.194;2023-03-03T11:35:32;8.70;99.90
34877;DHT22;21086;44.780;17.194;2023-03-03T11:38:30;8.70;99.90
34877;DHT22;21086;44.780;17.194;2023-03-03T11:43:46;8.70;99.90
34877;DHT22;21086;44.780;17.194;2023-03-03T11:46:28;8.60;99.90
34877;DHT22;21086;44.780;17.194;2023-03-03T11:49:05;8.50;99.90
34877;DHT22;21086;44.780;17.194;2023-03-03T12:03:47;8.70;99.90
34877;DHT22;21086;44.780;17.194;2023-03-03T12:16:50;9.00;99.90
34877;DHT22;21086;44.780;17.194;2023-03-03T12:22:25;9.10;99.90
34877;DHT22;21086;44.780;17.194;2023-03-03T12:25:29;9.10;99.90
34877;DHT22;21086;44.780;17.194;2023-03-03T12:33:54;8.80;99.90
34877;DHT22;21086;44.780;17.194;2023-03-03T12:44:59;8.70;99.90
34877;DHT22;21086;44.780;17.194;2023-03-03T12:47:40;8.70;99.90
34877;DHT22;21086;44.780;17.194;2023-03-03T12:55:43;8.60;99.90
34877;DHT22;21086;44.780;17.194;2023-03-03T13:01:17;8.70;99.90
34877;DHT22;21086;44.780;17.194;2023-03-03T13:03:58;8.70;99.90
34877;DHT22;21086;44.780;17.194;2023-03-03T13:06:41;8.80;99.90
34877;DHT22;21086;44.780;17.194;2023-03-03T13:20:00;8.70;99.90
34877;DHT22;21086;44.780;17.194;2023-03-03T13:23:00;8.70;99.90
34877;DHT22;21086;44.780;17.194;2023-03-03T13:28:17;8.70;99.90
34877;DHT22;21086;44.780;17.194;2023-03-03T13:30:49;8.70;99.90
34877;DHT22;21086;44.780;17.194;2023-03-03T13:33:33;8.70;99.90
34877;DHT22;21086;44.780;17.194;2023-03-03T13:36:12;8.70;99.90
34877;DHT22;21086;44.780;17.194;2023-03-03T13:38:45;8.70;99.90
34877;DHT22;21086;44.780;17.194;2023-03-03T13:41:31;8.80;99.90
34877;DHT22;21086;44.780;17.194;2023-03-03T13:49:30;8.90;99.90
34877;DHT22;21086;44.780;17.194;2023-03-03T13:52:14;8.90;99.90
34877;DHT22;21086;44.780;17.194;2023-03-03T14:05:51;9.00;99.90
34877;DHT22;21086;44.780;17.194;2023-03-03T14:20:11;8.80;99.90
34877;DHT22;21086;44.780;17.194;2023-03-03T14:22:51;8.70;99.90
34877;DHT22;21086;44.780;17.194;2023-03-03T14:25:19;8.80;99.90
34877;DHT22;21086;44.780;17.194;2023-03-03T14:35:30;8.80;99.90
34877;DHT22;21086;44.780;17.194;2023-03-03T14:40:36;8.60;99.90
34877;DHT22;21086;44.780;17.194;2023-03-03T14:43:22;8.40;99.90
34877;DHT22;21086;44.780;17.194;2023-03-03T14:45:51;8.40;99.90
34877;DHT22;21086;44.780;17.194;2023-03-03T14:48:20;8.50;99.90
34877;DHT22;21086;44.780;17.194;2023-03-03T14:50:50;8.50;99.90
34877;DHT22;21086;44.780;17.194;2023-03-03T14:55:51;8.40;99.90
34877;DHT22;21086;44.780;17.194;2023-03-03T14:58:33;8.40;99.90
34877;DHT22;21086;44.780;17.194;2023-03-03T15:04:02;8.50;99.90
34877;DHT22;21086;44.780;17.194;2023-03-03T15:06:35;8.20;99.90
34877;DHT22;21086;44.780;17.194;2023-03-03T15:11:53;8.20;99.90
34877;DHT22;21086;44.780;17.194;2023-03-03T15:14:44;8.20;99.90
34877;DHT22;21086;44.780;17.194;2023-03-03T15:17:24;8.30;99.90
34877;DHT22;21086;44.780;17.194;2023-03-03T15:22:59;8.20;99.90
34877;DHT22;21086;44.780;17.194;2023-03-03T15:25:58;8.20;99.90
34877;DHT22;21086;44.780;17.194;2023-03-03T15:28:45;8.00;99.90
34877;DHT22;21086;44.780;17.194;2023-03-03T15:31:30;7.90;99.90
34877;DHT22;21086;44.780;17.194;2023-03-03T15:36:49;7.90;99.90
34877;DHT22;21086;44.780;17.194;2023-03-03T15:45:26;8.00;99.90
34877;DHT22;21086;44.780;17.194;2023-03-03T15:50:53;8.00;99.90
34877;DHT22;21086;44.780;17.194;2023-03-03T15:56:13;7.80;99.90
34877;DHT22;21086;44.780;17.194;2023-03-03T16:01:40;7.70;99.90
34877;DHT22;21086;44.780;17.194;2023-03-03T16:04:12;7.90;99.90
34877;DHT22;21086;44.780;17.194;2023-03-03T16:12:54;7.70;99.90
34877;DHT22;21086;44.780;17.194;2023-03-03T16:18:35;7.50;99.90
34877;DHT22;21086;44.780;17.194;2023-03-03T16:24:14;7.60;99.90
34877;DHT22;21086;44.780;17.194;2023-03-03T16:29:41;7.60;99.90
34877;DHT22;21086;44.780;17.194;2023-03-03T16:32:33;7.70;99.90
34877;DHT22;21086;44.780;17.194;2023-03-03T16:35:23;7.80;99.90
34877;DHT22;21086;44.780;17.194;2023-03-03T16:41:00;7.80;99.90
34877;DHT22;21086;44.780;17.194;2023-03-03T16:43:49;7.90;99.90
34877;DHT22;21086;44.780;17.194;2023-03-03T16:57:15;7.80;99.90
34877;DHT22;21086;44.780;17.194;2023-03-03T17:19:28;7.90;99.90
34877;DHT22;21086;44.780;17.194;2023-03-03T17:27:51;7.70;99.90
34877;DHT22;21086;44.780;17.194;2023-03-03T17:30:34;7.60;99.90
34877;DHT22;21086;44.780;17.194;2023-03-03T17:46:44;7.20;99.90
34877;DHT22;21086;44.780;17.194;2023-03-03T17:52:07;7.10;99.90
34877;DHT22;21086;44.780;17.194;2023-03-03T18:12:03;7.40;99.90
34877;DHT22;21086;44.780;17.194;2023-03-03T18:23:38;7.60;99.90
34877;DHT22;21086;44.780;17.194;2023-03-03T18:34:42;7.90;99.90
34877;DHT22;21086;44.780;17.194;2023-03-03T18:42:56;7.70;99.90
34877;DHT22;21086;44.780;17.194;2023-03-03T18:48:02;7.60;99.90
34877;DHT22;21086;44.780;17.194;2023-03-03T18:50:38;7.50;99.90
34877;DHT22;21086;44.780;17.194;2023-03-03T18:53:28;7.40;99.90
34877;DHT22;21086;44.780;17.194;2023-03-03T18:55:58;7.40;99.90
34877;DHT22;21086;44.780;17.194;2023-03-03T18:58:36;7.40;99.90
34877;DHT22;21086;44.780;17.194;2023-03-03T19:06:54;7.40;99.90
34877;DHT22;21086;44.780;17.194;2023-03-03T19:10:06;7.30;99.90
34877;DHT22;21086;44.780;17.194;2023-03-03T19:12:59;7.40;99.90
34877;DHT22;21086;44.780;17.194;2023-03-03T19:18:31;7.50;99.90
34877;DHT22;21086;44.780;17.194;2023-03-03T19:21:35;7.60;99.90
34877;DHT22;21086;44.780;17.194;2023-03-03T19:24:27;7.60;99.90
34877;DHT22;21086;44.780;17.194;2023-03-03T19:32:29;7.60;99.90
34877;DHT22;21086;44.780;17.194;2023-03-03T19:48:53;7.50;99.90
34877;DHT22;21086;44.780;17.194;2023-03-03T19:56:49;7.40;99.90
34877;DHT22;21086;44.780;17.194;2023-03-03T19:59:37;7.40;99.90
34877;DHT22;21086;44.780;17.194;2023-03-03T20:08:12;7.60;99.90
34877;DHT22;21086;44.780;17.194;2023-03-03T20:10:51;7.60;99.90
34877;DHT22;21086;44.780;17.194;2023-03-03T20:36:18;7.30;99.90
34877;DHT22;21086;44.780;17.194;2023-03-03T20:47:17;7.30;99.90
34877;DHT22;21086;44.780;17.194;2023-03-03T20:53:12;7.30;99.90
34877;DHT22;21086;44.780;17.194;2023-03-03T21:01:14;7.40;99.90
34877;DHT22;21086;44.780;17.194;2023-03-03T21:03:43;7.40;99.90
34877;DHT22;21086;44.780;17.194;2023-03-03T21:06:16;7.50;99.90
34877;DHT22;21086;44.780;17.194;2023-03-03T21:08:49;7.50;99.90
34877;DHT22;21086;44.780;17.194;2023-03-03T21:11:24;7.50;99.90
34877;DHT22;21086;44.780;17.194;2023-03-03T21:14:23;7.40;99.90
34877;DHT22;21086;44.780;17.194;2023-03-03T21:16:52;7.40;99.90
34877;DHT22;21086;44.780;17.194;2023-03-03T21:19:25;7.40;99.90
34877;DHT22;21086;44.780;17.194;2023-03-03T21:21:53;7.50;99.90
34877;DHT22;21086;44.780;17.194;2023-03-03T21:24:21;7.50;99.90
34877;DHT22;21086;44.780;17.194;2023-03-03T21:26:52;7.50;99.90
34877;DHT22;21086;44.780;17.194;2023-03-03T21:29:32;7.40;99.90
34877;DHT22;21086;44.780;17.194;2023-03-03T21:32:00;7.40;99.90
34877;DHT22;21086;44.780;17.194;2023-03-03T21:34:36;7.50;99.90
34877;DHT22;21086;44.780;17.194;2023-03-03T21:37:07;7.50;99.90
34877;DHT22;21086;44.780;17.194;2023-03-03T21:42:09;7.50;99.90
34877;DHT22;21086;44.780;17.194;2023-03-03T21:44:44;7.50;99.90
34877;DHT22;21086;44.780;17.194;2023-03-03T21:47:14;7.50;99.90
34877;DHT22;21086;44.780;17.194;2023-03-03T21:49:43;7.50;99.90
34877;DHT22;21086;44.780;17.194;2023-03-03T21:52:14;7.50;99.90
34877;DHT22;21086;44.780;17.194;2023-03-03T21:54:43;7.50;99.90
34877;DHT22;21086;44.780;17.194;2023-03-03T21:57:10;7.50;99.90
34877;DHT22;21086;44.780;17.194;2023-03-03T21:59:38;7.40;99.90
34877;DHT22;21086;44.780;17.194;2023-03-03T22:02:06;7.50;99.90
34877;DHT22;21086;44.780;17.194;2023-03-03T22:04:33;7.50;99.90
34877;DHT22;21086;44.780;17.194;2023-03-03T22:07:01;7.50;99.90
34877;DHT22;21086;44.780;17.194;2023-03-03T22:09:27;7.50;99.90
34877;DHT22;21086;44.780;17.194;2023-03-03T22:11:54;7.50;99.90
34877;DHT22;21086;44.780;17.194;2023-03-03T22:14:21;7.50;99.90
34877;DHT22;21086;44.780;17.194;2023-03-03T22:16:48;7.50;99.90
34877;DHT22;21086;44.780;17.194;2023-03-03T22:19:15;7.50;99.90
34877;DHT22;21086;44.780;17.194;2023-03-03T22:21:42;8.20;99.90
34877;DHT22;21086;44.780;17.194;2023-03-03T22:24:09;7.40;99.90
34877;DHT22;21086;44.780;17.194;2023-03-03T22:26:36;7.40;99.90
34877;DHT22;21086;44.780;17.194;2023-03-03T22:29:03;7.40;99.90
34877;DHT22;21086;44.780;17.194;2023-03-03T22:31:31;7.40;99.90
34877;DHT22;21086;44.780;17.194;2023-03-03T22:33:59;7.40;99.90
34877;DHT22;21086;44.780;17.194;2023-03-03T22:36:27;7.40;99.90
34877;DHT22;21086;44.780;17.194;2023-03-03T22:38:53;7.40;99.90
34877;DHT22;21086;44.780;17.194;2023-03-03T22:41:21;7.40;99.90
34877;DHT22;21086;44.780;17.194;2023-03-03T22:43:47;7.30;99.90
34877;DHT22;21086;44.780;17.194;2023-03-03T22:46:14;7.30;99.90
34877;DHT22;21086;44.780;17.194;2023-03-03T22:48:41;7.40;99.90
34877;DHT22;21086;44.780;17.194;2023-03-03T22:51:08;7.40;99.90
34877;DHT22;21086;44.780;17.194;2023-03-03T22:53:35;7.30;99.90
34877;DHT22;21086;44.780;17.194;2023-03-03T22:56:02;7.40;99.90
34877;DHT22;21086;44.780;17.194;2023-03-03T22:58:29;7.30;99.90
34877;DHT22;21086;44.780;17.194;2023-03-03T23:00:56;7.10;99.90
34877;DHT22;21086;44.780;17.194;2023-03-03T23:03:24;6.90;99.90
34877;DHT22;21086;44.780;17.194;2023-03-03T23:05:51;6.90;99.90
34877;DHT22;21086;44.780;17.194;2023-03-03T23:08:19;6.90;99.90